MyWebLog Booking Liste

 

Nyhetsmelding

Kopirett © 2014 Værnes Flyklubb. Alle rettigheter reservert.
Joomla! er fri programvare utgitt under GNU/GPL License.
 

METAR

ENVA 240850Z 31003KT CAVOK 14/M00 Q1029 NOSIG RMK WIND 670FT 02002KT

TAF ENVA 2409/2509 15007KT CAVOK PROB30 2411/2418 28010KT